sensor_id;sensor_type;location;lat;lon;timestamp;temperature;humidity
13186;DHT22;6658;53.080;7.428;2023-07-22T00:02:25;12.40;99.90
13186;DHT22;6658;53.080;7.428;2023-07-22T00:04:51;12.40;99.90
13186;DHT22;6658;53.080;7.428;2023-07-22T00:07:17;12.40;99.90
13186;DHT22;6658;53.080;7.428;2023-07-22T00:09:43;12.40;99.90
13186;DHT22;6658;53.080;7.428;2023-07-22T00:12:09;12.30;99.90
13186;DHT22;6658;53.080;7.428;2023-07-22T00:14:39;12.40;99.90
13186;DHT22;6658;53.080;7.428;2023-07-22T00:17:05;12.40;99.90
13186;DHT22;6658;53.080;7.428;2023-07-22T00:19:30;12.30;99.90
13186;DHT22;6658;53.080;7.428;2023-07-22T00:21:56;12.30;99.90
13186;DHT22;6658;53.080;7.428;2023-07-22T00:24:22;12.30;99.90
13186;DHT22;6658;53.080;7.428;2023-07-22T00:26:48;12.30;99.90
13186;DHT22;6658;53.080;7.428;2023-07-22T00:29:15;12.30;99.90
13186;DHT22;6658;53.080;7.428;2023-07-22T00:31:42;12.30;99.90
13186;DHT22;6658;53.080;7.428;2023-07-22T00:34:07;12.20;99.90
13186;DHT22;6658;53.080;7.428;2023-07-22T00:36:33;12.20;99.90
13186;DHT22;6658;53.080;7.428;2023-07-22T00:38:59;12.20;99.90
13186;DHT22;6658;53.080;7.428;2023-07-22T00:41:27;12.20;99.90
13186;DHT22;6658;53.080;7.428;2023-07-22T00:43:52;12.20;99.90
13186;DHT22;6658;53.080;7.428;2023-07-22T00:46:18;12.20;99.90
13186;DHT22;6658;53.080;7.428;2023-07-22T00:48:44;12.20;99.90
13186;DHT22;6658;53.080;7.428;2023-07-22T00:51:10;12.10;99.90
13186;DHT22;6658;53.080;7.428;2023-07-22T00:53:36;12.10;99.90
13186;DHT22;6658;53.080;7.428;2023-07-22T00:56:02;12.10;99.90
13186;DHT22;6658;53.080;7.428;2023-07-22T00:58:28;12.00;99.90
13186;DHT22;6658;53.080;7.428;2023-07-22T01:00:53;12.00;99.90
13186;DHT22;6658;53.080;7.428;2023-07-22T01:03:19;11.90;99.90
13186;DHT22;6658;53.080;7.428;2023-07-22T01:05:46;11.90;99.90
13186;DHT22;6658;53.080;7.428;2023-07-22T01:08:13;11.90;99.90
13186;DHT22;6658;53.080;7.428;2023-07-22T01:10:39;11.80;99.90
13186;DHT22;6658;53.080;7.428;2023-07-22T01:13:05;11.80;99.90
13186;DHT22;6658;53.080;7.428;2023-07-22T01:15:31;11.70;99.90
13186;DHT22;6658;53.080;7.428;2023-07-22T01:17:57;11.70;99.90
13186;DHT22;6658;53.080;7.428;2023-07-22T01:20:30;11.70;99.90
13186;DHT22;6658;53.080;7.428;2023-07-22T01:22:56;11.70;99.90
13186;DHT22;6658;53.080;7.428;2023-07-22T01:25:23;11.60;99.90
13186;DHT22;6658;53.080;7.428;2023-07-22T01:27:51;11.60;99.90
13186;DHT22;6658;53.080;7.428;2023-07-22T01:30:17;11.60;99.90
13186;DHT22;6658;53.080;7.428;2023-07-22T01:32:45;11.50;99.90
13186;DHT22;6658;53.080;7.428;2023-07-22T01:35:11;11.50;99.90
13186;DHT22;6658;53.080;7.428;2023-07-22T01:37:36;11.40;99.90
13186;DHT22;6658;53.080;7.428;2023-07-22T01:40:02;11.40;99.90
13186;DHT22;6658;53.080;7.428;2023-07-22T01:42:41;11.40;99.90
13186;DHT22;6658;53.080;7.428;2023-07-22T01:45:08;11.40;99.90
13186;DHT22;6658;53.080;7.428;2023-07-22T01:47:38;11.40;99.90
13186;DHT22;6658;53.080;7.428;2023-07-22T01:50:04;11.30;99.90
13186;DHT22;6658;53.080;7.428;2023-07-22T01:52:31;11.30;99.90
13186;DHT22;6658;53.080;7.428;2023-07-22T01:54:57;11.30;99.90
13186;DHT22;6658;53.080;7.428;2023-07-22T01:57:23;11.30;99.90
13186;DHT22;6658;53.080;7.428;2023-07-22T01:59:48;11.20;99.90
13186;DHT22;6658;53.080;7.428;2023-07-22T02:02:14;11.20;99.90
13186;DHT22;6658;53.080;7.428;2023-07-22T02:04:40;11.20;99.90
13186;DHT22;6658;53.080;7.428;2023-07-22T02:07:05;11.20;99.90
13186;DHT22;6658;53.080;7.428;2023-07-22T02:09:32;11.20;99.90
13186;DHT22;6658;53.080;7.428;2023-07-22T02:11:58;11.30;99.90
13186;DHT22;6658;53.080;7.428;2023-07-22T02:14:24;11.20;99.90
13186;DHT22;6658;53.080;7.428;2023-07-22T02:16:50;11.20;99.90
13186;DHT22;6658;53.080;7.428;2023-07-22T02:19:15;11.30;99.90
13186;DHT22;6658;53.080;7.428;2023-07-22T02:21:41;11.20;99.90
13186;DHT22;6658;53.080;7.428;2023-07-22T02:24:09;11.30;99.90
13186;DHT22;6658;53.080;7.428;2023-07-22T02:26:34;11.30;99.90
13186;DHT22;6658;53.080;7.428;2023-07-22T02:29:00;11.30;99.90
13186;DHT22;6658;53.080;7.428;2023-07-22T02:31:26;11.30;99.90
13186;DHT22;6658;53.080;7.428;2023-07-22T02:33:52;11.30;99.90
13186;DHT22;6658;53.080;7.428;2023-07-22T02:36:17;11.30;99.90
13186;DHT22;6658;53.080;7.428;2023-07-22T02:38:43;11.30;99.90
13186;DHT22;6658;53.080;7.428;2023-07-22T02:41:09;11.30;99.90
13186;DHT22;6658;53.080;7.428;2023-07-22T02:43:35;11.30;99.90
13186;DHT22;6658;53.080;7.428;2023-07-22T02:46:05;11.30;99.90
13186;DHT22;6658;53.080;7.428;2023-07-22T02:48:33;11.30;99.90
13186;DHT22;6658;53.080;7.428;2023-07-22T02:51:09;11.30;99.90
13186;DHT22;6658;53.080;7.428;2023-07-22T02:53:36;11.20;99.90
13186;DHT22;6658;53.080;7.428;2023-07-22T02:56:03;11.20;99.90
13186;DHT22;6658;53.080;7.428;2023-07-22T02:58:29;11.10;99.90
13186;DHT22;6658;53.080;7.428;2023-07-22T03:00:55;11.10;99.90
13186;DHT22;6658;53.080;7.428;2023-07-22T03:03:23;11.00;99.90
13186;DHT22;6658;53.080;7.428;2023-07-22T03:05:48;11.00;99.90
13186;DHT22;6658;53.080;7.428;2023-07-22T03:08:15;10.90;99.90
13186;DHT22;6658;53.080;7.428;2023-07-22T03:10:41;10.90;99.90
13186;DHT22;6658;53.080;7.428;2023-07-22T03:13:06;10.80;99.90
13186;DHT22;6658;53.080;7.428;2023-07-22T03:15:33;10.80;99.90
13186;DHT22;6658;53.080;7.428;2023-07-22T03:17:58;10.70;99.90
13186;DHT22;6658;53.080;7.428;2023-07-22T03:20:25;10.70;99.90
13186;DHT22;6658;53.080;7.428;2023-07-22T03:22:51;10.70;99.90
13186;DHT22;6658;53.080;7.428;2023-07-22T03:25:18;10.70;99.90
13186;DHT22;6658;53.080;7.428;2023-07-22T03:27:45;10.70;99.90
13186;DHT22;6658;53.080;7.428;2023-07-22T03:30:13;10.70;99.90
13186;DHT22;6658;53.080;7.428;2023-07-22T03:32:43;10.70;99.90
13186;DHT22;6658;53.080;7.428;2023-07-22T03:35:09;10.70;99.90
13186;DHT22;6658;53.080;7.428;2023-07-22T03:37:38;10.70;99.90
13186;DHT22;6658;53.080;7.428;2023-07-22T03:40:05;10.70;99.90
13186;DHT22;6658;53.080;7.428;2023-07-22T03:42:40;10.70;99.90
13186;DHT22;6658;53.080;7.428;2023-07-22T03:45:07;10.70;99.90
13186;DHT22;6658;53.080;7.428;2023-07-22T03:47:35;10.70;99.90
13186;DHT22;6658;53.080;7.428;2023-07-22T03:50:01;10.80;99.90
13186;DHT22;6658;53.080;7.428;2023-07-22T03:52:26;10.80;99.90
13186;DHT22;6658;53.080;7.428;2023-07-22T03:54:52;10.80;99.90
13186;DHT22;6658;53.080;7.428;2023-07-22T03:57:17;10.90;99.90
13186;DHT22;6658;53.080;7.428;2023-07-22T03:59:43;11.00;99.90
13186;DHT22;6658;53.080;7.428;2023-07-22T04:02:11;11.00;99.90
13186;DHT22;6658;53.080;7.428;2023-07-22T04:04:37;11.10;99.90
13186;DHT22;6658;53.080;7.428;2023-07-22T04:07:03;11.10;99.90
13186;DHT22;6658;53.080;7.428;2023-07-22T04:09:33;11.20;99.90
13186;DHT22;6658;53.080;7.428;2023-07-22T04:11:58;11.30;99.90
13186;DHT22;6658;53.080;7.428;2023-07-22T04:14:24;11.40;99.90
13186;DHT22;6658;53.080;7.428;2023-07-22T04:16:50;11.50;99.90
13186;DHT22;6658;53.080;7.428;2023-07-22T04:19:15;11.50;99.90
13186;DHT22;6658;53.080;7.428;2023-07-22T04:21:42;11.60;99.90
13186;DHT22;6658;53.080;7.428;2023-07-22T04:24:08;11.70;99.90
13186;DHT22;6658;53.080;7.428;2023-07-22T04:26:34;11.70;99.90
13186;DHT22;6658;53.080;7.428;2023-07-22T04:28:59;11.80;99.90
13186;DHT22;6658;53.080;7.428;2023-07-22T04:31:25;11.90;99.90
13186;DHT22;6658;53.080;7.428;2023-07-22T04:33:51;12.10;99.90
13186;DHT22;6658;53.080;7.428;2023-07-22T04:36:17;12.40;99.90
13186;DHT22;6658;53.080;7.428;2023-07-22T04:38:42;12.70;99.90
13186;DHT22;6658;53.080;7.428;2023-07-22T04:41:08;13.20;99.90
13186;DHT22;6658;53.080;7.428;2023-07-22T04:43:34;13.60;99.90
13186;DHT22;6658;53.080;7.428;2023-07-22T04:45:59;14.00;99.90
13186;DHT22;6658;53.080;7.428;2023-07-22T04:48:26;14.50;99.90
13186;DHT22;6658;53.080;7.428;2023-07-22T04:50:51;14.90;99.90
13186;DHT22;6658;53.080;7.428;2023-07-22T04:53:18;15.00;99.90
13186;DHT22;6658;53.080;7.428;2023-07-22T04:55:44;15.10;99.90
13186;DHT22;6658;53.080;7.428;2023-07-22T04:58:10;15.20;99.90
13186;DHT22;6658;53.080;7.428;2023-07-22T05:00:37;15.10;99.90
13186;DHT22;6658;53.080;7.428;2023-07-22T05:03:03;15.10;99.90
13186;DHT22;6658;53.080;7.428;2023-07-22T05:05:29;15.20;99.90
13186;DHT22;6658;53.080;7.428;2023-07-22T05:07:55;15.20;99.90
13186;DHT22;6658;53.080;7.428;2023-07-22T05:10:21;15.20;99.90
13186;DHT22;6658;53.080;7.428;2023-07-22T05:12:46;15.00;99.90
13186;DHT22;6658;53.080;7.428;2023-07-22T05:15:12;14.90;99.90
13186;DHT22;6658;53.080;7.428;2023-07-22T05:17:39;14.80;99.90
13186;DHT22;6658;53.080;7.428;2023-07-22T05:20:05;14.70;99.90
13186;DHT22;6658;53.080;7.428;2023-07-22T05:22:34;14.70;99.90
13186;DHT22;6658;53.080;7.428;2023-07-22T05:25:00;14.70;99.90
13186;DHT22;6658;53.080;7.428;2023-07-22T05:27:26;14.80;99.90
13186;DHT22;6658;53.080;7.428;2023-07-22T05:29:51;15.00;99.90
13186;DHT22;6658;53.080;7.428;2023-07-22T05:32:17;15.20;99.90
13186;DHT22;6658;53.080;7.428;2023-07-22T05:34:43;15.40;99.90
13186;DHT22;6658;53.080;7.428;2023-07-22T05:37:08;15.60;99.90
13186;DHT22;6658;53.080;7.428;2023-07-22T05:39:34;15.80;99.90
13186;DHT22;6658;53.080;7.428;2023-07-22T05:42:00;15.90;99.90
13186;DHT22;6658;53.080;7.428;2023-07-22T05:44:25;16.10;99.90
13186;DHT22;6658;53.080;7.428;2023-07-22T05:46:51;16.20;99.90
13186;DHT22;6658;53.080;7.428;2023-07-22T05:49:17;16.10;99.90
13186;DHT22;6658;53.080;7.428;2023-07-22T05:51:43;16.10;99.90
13186;DHT22;6658;53.080;7.428;2023-07-22T05:54:08;16.00;99.90
13186;DHT22;6658;53.080;7.428;2023-07-22T05:56:34;15.90;99.90
13186;DHT22;6658;53.080;7.428;2023-07-22T05:59:00;15.90;99.90
13186;DHT22;6658;53.080;7.428;2023-07-22T06:01:25;15.90;99.90
13186;DHT22;6658;53.080;7.428;2023-07-22T06:03:51;16.00;99.90
13186;DHT22;6658;53.080;7.428;2023-07-22T06:06:17;16.20;99.90
13186;DHT22;6658;53.080;7.428;2023-07-22T06:08:42;16.20;99.90
13186;DHT22;6658;53.080;7.428;2023-07-22T06:11:08;16.20;99.90
13186;DHT22;6658;53.080;7.428;2023-07-22T06:13:34;16.30;99.90
13186;DHT22;6658;53.080;7.428;2023-07-22T06:15:59;16.30;99.90
13186;DHT22;6658;53.080;7.428;2023-07-22T06:18:25;16.40;99.90
13186;DHT22;6658;53.080;7.428;2023-07-22T06:20:51;16.40;99.90
13186;DHT22;6658;53.080;7.428;2023-07-22T06:23:17;16.50;99.90
13186;DHT22;6658;53.080;7.428;2023-07-22T06:25:42;16.50;99.90
13186;DHT22;6658;53.080;7.428;2023-07-22T06:28:08;16.40;99.90
13186;DHT22;6658;53.080;7.428;2023-07-22T06:30:34;16.40;99.90
13186;DHT22;6658;53.080;7.428;2023-07-22T06:33:00;16.50;99.90
13186;DHT22;6658;53.080;7.428;2023-07-22T06:35:25;16.80;99.90
13186;DHT22;6658;53.080;7.428;2023-07-22T06:37:51;17.20;99.90
13186;DHT22;6658;53.080;7.428;2023-07-22T06:40:17;17.60;99.90
13186;DHT22;6658;53.080;7.428;2023-07-22T06:42:43;17.70;99.90
13186;DHT22;6658;53.080;7.428;2023-07-22T06:45:09;17.80;99.90
13186;DHT22;6658;53.080;7.428;2023-07-22T06:47:35;17.80;99.90
13186;DHT22;6658;53.080;7.428;2023-07-22T06:50:02;17.80;99.90
13186;DHT22;6658;53.080;7.428;2023-07-22T06:52:28;17.80;99.90
13186;DHT22;6658;53.080;7.428;2023-07-22T06:54:54;17.90;99.90
13186;DHT22;6658;53.080;7.428;2023-07-22T06:57:19;18.00;99.90
13186;DHT22;6658;53.080;7.428;2023-07-22T06:59:45;18.00;99.90
13186;DHT22;6658;53.080;7.428;2023-07-22T07:02:10;18.00;99.90
13186;DHT22;6658;53.080;7.428;2023-07-22T07:04:36;18.00;99.90
13186;DHT22;6658;53.080;7.428;2023-07-22T07:07:02;18.00;99.90
13186;DHT22;6658;53.080;7.428;2023-07-22T07:09:28;18.10;99.90
13186;DHT22;6658;53.080;7.428;2023-07-22T07:11:53;18.10;99.90
13186;DHT22;6658;53.080;7.428;2023-07-22T07:14:22;18.30;99.90
13186;DHT22;6658;53.080;7.428;2023-07-22T07:16:49;18.50;99.90
13186;DHT22;6658;53.080;7.428;2023-07-22T07:19:15;18.70;99.90
13186;DHT22;6658;53.080;7.428;2023-07-22T07:21:40;18.80;99.90
13186;DHT22;6658;53.080;7.428;2023-07-22T07:24:06;18.90;99.90
13186;DHT22;6658;53.080;7.428;2023-07-22T07:26:31;19.30;99.90
13186;DHT22;6658;53.080;7.428;2023-07-22T07:28:57;19.50;99.90
13186;DHT22;6658;53.080;7.428;2023-07-22T07:31:23;19.60;99.90
13186;DHT22;6658;53.080;7.428;2023-07-22T07:33:48;20.00;99.90
13186;DHT22;6658;53.080;7.428;2023-07-22T07:36:14;20.50;99.90
13186;DHT22;6658;53.080;7.428;2023-07-22T07:38:40;20.90;99.90
13186;DHT22;6658;53.080;7.428;2023-07-22T07:41:07;21.50;99.90
13186;DHT22;6658;53.080;7.428;2023-07-22T07:43:37;22.00;99.90
13186;DHT22;6658;53.080;7.428;2023-07-22T07:46:20;22.10;99.90
13186;DHT22;6658;53.080;7.428;2023-07-22T07:48:48;22.60;99.90
13186;DHT22;6658;53.080;7.428;2023-07-22T07:51:14;23.00;99.90
13186;DHT22;6658;53.080;7.428;2023-07-22T07:53:41;23.00;99.90
13186;DHT22;6658;53.080;7.428;2023-07-22T07:56:09;22.80;99.90
13186;DHT22;6658;53.080;7.428;2023-07-22T07:58:36;22.60;99.90
13186;DHT22;6658;53.080;7.428;2023-07-22T08:01:02;22.30;99.90
13186;DHT22;6658;53.080;7.428;2023-07-22T08:03:28;22.10;99.90
13186;DHT22;6658;53.080;7.428;2023-07-22T08:05:53;22.10;99.90
13186;DHT22;6658;53.080;7.428;2023-07-22T08:08:20;22.00;99.90
13186;DHT22;6658;53.080;7.428;2023-07-22T08:10:46;22.00;99.90
13186;DHT22;6658;53.080;7.428;2023-07-22T08:13:12;21.90;99.90
13186;DHT22;6658;53.080;7.428;2023-07-22T08:15:37;21.90;99.90
13186;DHT22;6658;53.080;7.428;2023-07-22T08:18:03;22.00;99.90
13186;DHT22;6658;53.080;7.428;2023-07-22T08:20:29;22.10;99.90
13186;DHT22;6658;53.080;7.428;2023-07-22T08:22:56;22.30;99.90
13186;DHT22;6658;53.080;7.428;2023-07-22T08:25:21;22.50;99.90
13186;DHT22;6658;53.080;7.428;2023-07-22T08:27:47;22.60;99.90
13186;DHT22;6658;53.080;7.428;2023-07-22T08:30:13;22.60;99.90
13186;DHT22;6658;53.080;7.428;2023-07-22T08:32:38;22.30;99.90
13186;DHT22;6658;53.080;7.428;2023-07-22T08:35:04;22.40;99.90
13186;DHT22;6658;53.080;7.428;2023-07-22T08:37:31;22.40;99.90
13186;DHT22;6658;53.080;7.428;2023-07-22T08:39:57;22.60;99.90
13186;DHT22;6658;53.080;7.428;2023-07-22T08:42:23;22.70;99.90
13186;DHT22;6658;53.080;7.428;2023-07-22T08:44:56;22.70;99.90
13186;DHT22;6658;53.080;7.428;2023-07-22T08:47:24;22.70;99.90
13186;DHT22;6658;53.080;7.428;2023-07-22T08:49:52;22.90;99.90
13186;DHT22;6658;53.080;7.428;2023-07-22T08:52:20;23.50;99.90
13186;DHT22;6658;53.080;7.428;2023-07-22T08:54:47;24.10;99.90
13186;DHT22;6658;53.080;7.428;2023-07-22T08:57:14;24.40;99.90
13186;DHT22;6658;53.080;7.428;2023-07-22T08:59:41;24.60;99.90
13186;DHT22;6658;53.080;7.428;2023-07-22T09:02:11;24.50;99.90
13186;DHT22;6658;53.080;7.428;2023-07-22T09:04:38;24.20;99.90
13186;DHT22;6658;53.080;7.428;2023-07-22T09:07:05;23.70;99.90
13186;DHT22;6658;53.080;7.428;2023-07-22T09:09:31;23.30;99.90
13186;DHT22;6658;53.080;7.428;2023-07-22T09:11:58;23.00;99.90
13186;DHT22;6658;53.080;7.428;2023-07-22T09:14:24;22.80;99.90
13186;DHT22;6658;53.080;7.428;2023-07-22T09:16:50;22.60;99.90
13186;DHT22;6658;53.080;7.428;2023-07-22T09:19:15;22.60;99.90
13186;DHT22;6658;53.080;7.428;2023-07-22T09:21:42;22.50;99.90
13186;DHT22;6658;53.080;7.428;2023-07-22T09:24:28;22.50;99.90
13186;DHT22;6658;53.080;7.428;2023-07-22T09:26:55;22.50;99.90
13186;DHT22;6658;53.080;7.428;2023-07-22T09:29:41;22.40;99.90
13186;DHT22;6658;53.080;7.428;2023-07-22T09:32:07;22.60;99.90
13186;DHT22;6658;53.080;7.428;2023-07-22T09:34:33;22.70;99.90
13186;DHT22;6658;53.080;7.428;2023-07-22T09:36:59;22.70;99.90
13186;DHT22;6658;53.080;7.428;2023-07-22T09:39:29;22.70;99.90
13186;DHT22;6658;53.080;7.428;2023-07-22T09:41:56;22.60;99.90
13186;DHT22;6658;53.080;7.428;2023-07-22T09:44:22;22.70;99.90
13186;DHT22;6658;53.080;7.428;2023-07-22T09:46:49;22.60;99.90
13186;DHT22;6658;53.080;7.428;2023-07-22T09:49:17;22.60;99.90
13186;DHT22;6658;53.080;7.428;2023-07-22T09:51:43;22.50;99.90
13186;DHT22;6658;53.080;7.428;2023-07-22T09:54:09;22.40;99.90
13186;DHT22;6658;53.080;7.428;2023-07-22T09:56:49;22.20;99.90
13186;DHT22;6658;53.080;7.428;2023-07-22T09:59:17;22.20;99.90
13186;DHT22;6658;53.080;7.428;2023-07-22T10:01:44;22.20;99.90
13186;DHT22;6658;53.080;7.428;2023-07-22T10:04:15;22.20;99.90
13186;DHT22;6658;53.080;7.428;2023-07-22T10:06:42;22.30;99.90
13186;DHT22;6658;53.080;7.428;2023-07-22T10:09:10;22.30;99.90
13186;DHT22;6658;53.080;7.428;2023-07-22T10:11:37;22.50;99.90
13186;DHT22;6658;53.080;7.428;2023-07-22T10:14:05;22.60;99.90
13186;DHT22;6658;53.080;7.428;2023-07-22T10:16:31;22.70;99.90
13186;DHT22;6658;53.080;7.428;2023-07-22T10:18:59;22.60;99.90
13186;DHT22;6658;53.080;7.428;2023-07-22T10:21:25;22.50;99.90
13186;DHT22;6658;53.080;7.428;2023-07-22T10:23:51;22.40;99.90
13186;DHT22;6658;53.080;7.428;2023-07-22T10:26:19;22.30;99.90
13186;DHT22;6658;53.080;7.428;2023-07-22T10:28:46;22.20;99.90
13186;DHT22;6658;53.080;7.428;2023-07-22T10:31:15;22.00;99.90
13186;DHT22;6658;53.080;7.428;2023-07-22T10:33:47;21.80;99.90
13186;DHT22;6658;53.080;7.428;2023-07-22T10:36:15;21.50;99.90
13186;DHT22;6658;53.080;7.428;2023-07-22T10:38:44;21.20;99.90
13186;DHT22;6658;53.080;7.428;2023-07-22T10:41:20;20.90;99.90
13186;DHT22;6658;53.080;7.428;2023-07-22T10:43:57;20.60;99.90
13186;DHT22;6658;53.080;7.428;2023-07-22T10:46:35;20.30;99.90
13186;DHT22;6658;53.080;7.428;2023-07-22T10:49:14;20.00;99.90
13186;DHT22;6658;53.080;7.428;2023-07-22T10:51:45;19.80;99.90
13186;DHT22;6658;53.080;7.428;2023-07-22T10:54:14;19.60;99.90
13186;DHT22;6658;53.080;7.428;2023-07-22T10:56:44;19.30;99.90
13186;DHT22;6658;53.080;7.428;2023-07-22T10:59:11;19.20;99.90
13186;DHT22;6658;53.080;7.428;2023-07-22T11:01:38;19.00;99.90
13186;DHT22;6658;53.080;7.428;2023-07-22T11:12:07;18.60;99.90
13186;DHT22;6658;53.080;7.428;2023-07-22T11:14:34;18.50;99.90
13186;DHT22;6658;53.080;7.428;2023-07-22T11:17:02;18.50;99.90
13186;DHT22;6658;53.080;7.428;2023-07-22T11:19:33;18.60;99.90
13186;DHT22;6658;53.080;7.428;2023-07-22T11:22:00;18.70;99.90
13186;DHT22;6658;53.080;7.428;2023-07-22T11:24:25;18.80;99.90
13186;DHT22;6658;53.080;7.428;2023-07-22T11:26:52;19.00;99.90
13186;DHT22;6658;53.080;7.428;2023-07-22T11:29:18;19.20;99.90
13186;DHT22;6658;53.080;7.428;2023-07-22T11:31:47;19.40;99.90
13186;DHT22;6658;53.080;7.428;2023-07-22T11:34:14;19.60;99.90
13186;DHT22;6658;53.080;7.428;2023-07-22T11:36:41;19.70;99.90
13186;DHT22;6658;53.080;7.428;2023-07-22T11:39:07;19.80;99.90
13186;DHT22;6658;53.080;7.428;2023-07-22T11:41:34;19.80;99.90
13186;DHT22;6658;53.080;7.428;2023-07-22T11:44:01;19.80;99.90
13186;DHT22;6658;53.080;7.428;2023-07-22T11:46:28;19.80;99.90
13186;DHT22;6658;53.080;7.428;2023-07-22T11:48:55;19.80;99.90
13186;DHT22;6658;53.080;7.428;2023-07-22T11:51:25;19.70;99.90
13186;DHT22;6658;53.080;7.428;2023-07-22T11:53:52;19.70;99.90
13186;DHT22;6658;53.080;7.428;2023-07-22T11:56:23;19.40;99.90
13186;DHT22;6658;53.080;7.428;2023-07-22T11:58:53;19.10;99.90
13186;DHT22;6658;53.080;7.428;2023-07-22T12:01:20;18.80;99.90
13186;DHT22;6658;53.080;7.428;2023-07-22T12:03:46;18.50;99.90
13186;DHT22;6658;53.080;7.428;2023-07-22T12:06:13;18.40;99.90
13186;DHT22;6658;53.080;7.428;2023-07-22T12:08:49;18.30;99.90
13186;DHT22;6658;53.080;7.428;2023-07-22T12:11:23;18.30;99.90
13186;DHT22;6658;53.080;7.428;2023-07-22T12:14:08;18.20;99.90
13186;DHT22;6658;53.080;7.428;2023-07-22T12:16:38;18.10;99.90
13186;DHT22;6658;53.080;7.428;2023-07-22T12:19:04;18.00;99.90
13186;DHT22;6658;53.080;7.428;2023-07-22T12:21:30;17.90;99.90
13186;DHT22;6658;53.080;7.428;2023-07-22T12:23:57;17.70;99.90
13186;DHT22;6658;53.080;7.428;2023-07-22T12:26:22;17.50;99.90
13186;DHT22;6658;53.080;7.428;2023-07-22T12:28:48;17.40;99.90
13186;DHT22;6658;53.080;7.428;2023-07-22T12:31:14;17.30;99.90
13186;DHT22;6658;53.080;7.428;2023-07-22T12:33:40;17.30;99.90
13186;DHT22;6658;53.080;7.428;2023-07-22T12:36:05;17.20;99.90
13186;DHT22;6658;53.080;7.428;2023-07-22T12:38:31;17.30;99.90
13186;DHT22;6658;53.080;7.428;2023-07-22T12:40:57;17.30;99.90
13186;DHT22;6658;53.080;7.428;2023-07-22T12:43:23;17.30;99.90
13186;DHT22;6658;53.080;7.428;2023-07-22T12:45:49;17.40;99.90
13186;DHT22;6658;53.080;7.428;2023-07-22T12:48:16;17.40;99.90
13186;DHT22;6658;53.080;7.428;2023-07-22T12:50:43;17.30;99.90
13186;DHT22;6658;53.080;7.428;2023-07-22T12:53:08;17.20;99.90
13186;DHT22;6658;53.080;7.428;2023-07-22T12:55:34;17.10;99.90
13186;DHT22;6658;53.080;7.428;2023-07-22T12:58:00;17.00;99.90
13186;DHT22;6658;53.080;7.428;2023-07-22T13:00:26;16.80;99.90
13186;DHT22;6658;53.080;7.428;2023-07-22T13:02:51;16.70;99.90
13186;DHT22;6658;53.080;7.428;2023-07-22T13:05:18;16.60;99.90
13186;DHT22;6658;53.080;7.428;2023-07-22T13:07:44;16.60;99.90
13186;DHT22;6658;53.080;7.428;2023-07-22T13:10:10;16.80;99.90
13186;DHT22;6658;53.080;7.428;2023-07-22T13:12:38;17.00;99.90
13186;DHT22;6658;53.080;7.428;2023-07-22T13:15:04;17.20;99.90
13186;DHT22;6658;53.080;7.428;2023-07-22T13:17:31;17.40;99.90
13186;DHT22;6658;53.080;7.428;2023-07-22T13:19:57;17.40;99.90
13186;DHT22;6658;53.080;7.428;2023-07-22T13:22:23;17.40;99.90
13186;DHT22;6658;53.080;7.428;2023-07-22T13:24:48;17.30;99.90
13186;DHT22;6658;53.080;7.428;2023-07-22T13:27:14;17.50;99.90
13186;DHT22;6658;53.080;7.428;2023-07-22T13:29:40;17.50;99.90
13186;DHT22;6658;53.080;7.428;2023-07-22T13:32:06;17.50;99.90
13186;DHT22;6658;53.080;7.428;2023-07-22T13:34:32;17.60;99.90
13186;DHT22;6658;53.080;7.428;2023-07-22T13:36:57;17.60;99.90
13186;DHT22;6658;53.080;7.428;2023-07-22T13:39:23;17.70;99.90
13186;DHT22;6658;53.080;7.428;2023-07-22T13:41:49;17.70;99.90
13186;DHT22;6658;53.080;7.428;2023-07-22T13:44:16;17.80;99.90
13186;DHT22;6658;53.080;7.428;2023-07-22T13:46:42;17.90;99.90
13186;DHT22;6658;53.080;7.428;2023-07-22T13:49:07;17.90;99.90
13186;DHT22;6658;53.080;7.428;2023-07-22T13:51:34;18.00;99.90
13186;DHT22;6658;53.080;7.428;2023-07-22T13:53:59;18.00;99.90
13186;DHT22;6658;53.080;7.428;2023-07-22T13:56:25;18.20;99.90
13186;DHT22;6658;53.080;7.428;2023-07-22T13:58:51;18.20;99.90
13186;DHT22;6658;53.080;7.428;2023-07-22T14:01:17;18.20;99.90
13186;DHT22;6658;53.080;7.428;2023-07-22T14:03:43;18.10;99.90
13186;DHT22;6658;53.080;7.428;2023-07-22T14:06:09;18.00;99.90
13186;DHT22;6658;53.080;7.428;2023-07-22T14:08:34;17.80;99.90
13186;DHT22;6658;53.080;7.428;2023-07-22T14:11:00;17.60;99.90
13186;DHT22;6658;53.080;7.428;2023-07-22T14:13:26;17.60;99.90
13186;DHT22;6658;53.080;7.428;2023-07-22T14:15:52;17.50;99.90
13186;DHT22;6658;53.080;7.428;2023-07-22T14:18:18;17.40;99.90
13186;DHT22;6658;53.080;7.428;2023-07-22T14:20:44;17.20;99.90
13186;DHT22;6658;53.080;7.428;2023-07-22T14:23:11;17.10;99.90
13186;DHT22;6658;53.080;7.428;2023-07-22T14:25:36;17.00;99.90
13186;DHT22;6658;53.080;7.428;2023-07-22T14:28:02;17.00;99.90
13186;DHT22;6658;53.080;7.428;2023-07-22T14:30:28;16.90;99.90
13186;DHT22;6658;53.080;7.428;2023-07-22T14:32:54;16.90;99.90
13186;DHT22;6658;53.080;7.428;2023-07-22T14:35:21;16.90;99.90
13186;DHT22;6658;53.080;7.428;2023-07-22T14:37:47;16.90;99.90
13186;DHT22;6658;53.080;7.428;2023-07-22T14:40:12;16.90;99.90
13186;DHT22;6658;53.080;7.428;2023-07-22T14:42:38;17.00;99.90
13186;DHT22;6658;53.080;7.428;2023-07-22T14:45:04;17.00;99.90
13186;DHT22;6658;53.080;7.428;2023-07-22T14:47:31;17.00;99.90
13186;DHT22;6658;53.080;7.428;2023-07-22T14:49:56;17.10;99.90
13186;DHT22;6658;53.080;7.428;2023-07-22T14:52:22;17.10;99.90
13186;DHT22;6658;53.080;7.428;2023-07-22T14:54:48;17.20;99.90
13186;DHT22;6658;53.080;7.428;2023-07-22T14:57:16;17.20;99.90
13186;DHT22;6658;53.080;7.428;2023-07-22T14:59:42;17.20;99.90
13186;DHT22;6658;53.080;7.428;2023-07-22T15:02:08;17.20;99.90
13186;DHT22;6658;53.080;7.428;2023-07-22T15:04:34;17.20;99.90
13186;DHT22;6658;53.080;7.428;2023-07-22T15:06:59;17.20;99.90
13186;DHT22;6658;53.080;7.428;2023-07-22T15:09:25;17.10;99.90
13186;DHT22;6658;53.080;7.428;2023-07-22T15:11:51;17.10;99.90
13186;DHT22;6658;53.080;7.428;2023-07-22T15:14:18;17.10;99.90
13186;DHT22;6658;53.080;7.428;2023-07-22T15:16:44;17.10;99.90
13186;DHT22;6658;53.080;7.428;2023-07-22T15:19:11;17.10;99.90
13186;DHT22;6658;53.080;7.428;2023-07-22T15:21:37;17.10;99.90
13186;DHT22;6658;53.080;7.428;2023-07-22T15:24:03;17.20;99.90
13186;DHT22;6658;53.080;7.428;2023-07-22T15:26:28;17.20;99.90
13186;DHT22;6658;53.080;7.428;2023-07-22T15:28:54;17.20;99.90
13186;DHT22;6658;53.080;7.428;2023-07-22T15:31:20;17.30;99.90
13186;DHT22;6658;53.080;7.428;2023-07-22T15:33:49;17.30;99.90
13186;DHT22;6658;53.080;7.428;2023-07-22T15:36:15;17.30;99.90
13186;DHT22;6658;53.080;7.428;2023-07-22T15:38:41;17.30;99.90
13186;DHT22;6658;53.080;7.428;2023-07-22T15:41:07;17.30;99.90
13186;DHT22;6658;53.080;7.428;2023-07-22T15:43:33;17.30;99.90
13186;DHT22;6658;53.080;7.428;2023-07-22T15:45:58;17.30;99.90
13186;DHT22;6658;53.080;7.428;2023-07-22T15:48:24;17.20;99.90
13186;DHT22;6658;53.080;7.428;2023-07-22T15:50:50;17.20;99.90